createdAt,value
2018-03-15T00:01:29.633Z,7.87
2018-03-15T00:03:57.115Z,8.17
2018-03-15T00:06:24.551Z,8.13
2018-03-15T00:08:52.030Z,12.40
2018-03-15T00:11:19.464Z,10.90
2018-03-15T00:13:46.919Z,8.33
2018-03-15T00:16:14.405Z,8.27
2018-03-15T00:18:42.041Z,7.90
2018-03-15T00:21:09.527Z,8.83
2018-03-15T00:23:37.696Z,7.30
2018-03-15T00:26:05.144Z,8.37
2018-03-15T00:28:32.572Z,8.03
2018-03-15T00:31:00.015Z,7.47
2018-03-15T00:33:28.215Z,8.50
2018-03-15T00:35:55.670Z,7.87
2018-03-15T00:38:23.148Z,8.10
2018-03-15T00:40:50.603Z,8.37
2018-03-15T00:43:18.063Z,7.80
2018-03-15T00:45:45.519Z,7.43
2018-03-15T00:48:12.976Z,7.00
2018-03-15T00:50:40.535Z,7.67
2018-03-15T00:53:07.970Z,8.67
2018-03-15T00:55:35.399Z,7.53
2018-03-15T00:58:03.609Z,9.60
2018-03-15T01:00:31.041Z,8.40
2018-03-15T01:02:58.476Z,7.17
2018-03-15T01:05:26.676Z,8.37
2018-03-15T01:07:54.116Z,8.57
2018-03-15T01:10:22.318Z,8.13
2018-03-15T01:12:49.772Z,8.57
2018-03-15T01:15:17.976Z,7.57
2018-03-15T01:17:45.408Z,8.03
2018-03-15T01:20:12.887Z,7.20
2018-03-15T01:22:40.327Z,7.47
2018-03-15T01:25:07.801Z,7.60
2018-03-15T01:27:35.233Z,7.40
2018-03-15T01:30:02.690Z,8.03
2018-03-15T01:32:30.120Z,8.30
2018-03-15T01:34:58.320Z,7.30
2018-03-15T01:37:25.767Z,7.27
2018-03-15T01:39:53.195Z,6.90
2018-03-15T01:42:21.421Z,6.80
2018-03-15T01:44:48.864Z,7.90
2018-03-15T01:47:16.301Z,7.40
2018-03-15T01:49:43.803Z,7.90
2018-03-15T01:52:11.237Z,8.03
2018-03-15T01:54:38.668Z,8.33
2018-03-15T01:57:06.876Z,7.30
2018-03-15T01:59:34.427Z,9.07
2018-03-15T02:02:01.903Z,7.73
2018-03-15T02:04:29.341Z,7.20
2018-03-15T02:06:56.872Z,7.97
2018-03-15T02:09:25.067Z,7.80
2018-03-15T02:11:52.511Z,8.60
2018-03-15T02:14:19.940Z,7.53
2018-03-15T02:16:47.470Z,7.70
2018-03-15T02:19:14.927Z,7.60
2018-03-15T02:21:42.360Z,8.00
2018-03-15T02:24:09.831Z,12.07
2018-03-15T02:26:37.266Z,8.40
2018-03-15T02:29:04.695Z,7.80
2018-03-15T02:31:32.925Z,7.67
2018-03-15T02:34:00.369Z,7.50
2018-03-15T02:36:27.845Z,7.33
2018-03-15T02:38:55.271Z,8.57
2018-03-15T02:41:22.715Z,8.00
2018-03-15T02:43:50.156Z,8.00
2018-03-15T02:46:18.364Z,7.30
2018-03-15T02:48:45.839Z,6.90
2018-03-15T02:51:13.291Z,8.17
2018-03-15T02:53:40.731Z,7.90
2018-03-15T02:56:08.168Z,7.47
2018-03-15T02:58:35.819Z,7.27
2018-03-15T03:01:04.020Z,9.07
2018-03-15T03:03:31.453Z,7.47
2018-03-15T03:05:59.659Z,7.60
2018-03-15T03:08:27.134Z,7.37
2018-03-15T03:10:54.573Z,6.83
2018-03-15T03:13:22.011Z,7.00
2018-03-15T03:15:49.448Z,7.97
2018-03-15T03:18:17.655Z,7.50
2018-03-15T03:20:45.145Z,8.23
2018-03-15T03:23:12.692Z,6.27
2018-03-15T03:25:40.130Z,7.33
2018-03-15T03:28:07.612Z,6.20
2018-03-15T03:30:35.883Z,7.07
2018-03-15T03:33:03.315Z,8.17
2018-03-15T03:35:30.768Z,8.50
2018-03-15T03:37:58.456Z,7.50
2018-03-15T03:40:25.913Z,6.93
2018-03-15T03:42:53.764Z,8.20
2018-03-15T03:45:21.544Z,7.80
2018-03-15T03:47:49.000Z,8.30
2018-03-15T03:50:16.434Z,7.90
2018-03-15T03:52:43.868Z,7.80
2018-03-15T03:55:12.093Z,7.37
2018-03-15T03:57:39.523Z,7.03
2018-03-15T04:00:07.012Z,6.87
2018-03-15T04:02:34.432Z,6.73
2018-03-15T04:05:01.920Z,6.93
2018-03-15T04:07:29.358Z,6.53
2018-03-15T04:09:56.832Z,6.63
2018-03-15T04:12:24.267Z,8.07
2018-03-15T04:14:51.746Z,7.50
2018-03-15T04:17:19.179Z,6.90
2018-03-15T04:19:46.624Z,7.23
2018-03-15T04:22:14.111Z,6.50
2018-03-15T04:24:41.559Z,7.30
2018-03-15T04:27:09.009Z,6.73
2018-03-15T04:29:36.449Z,6.20
2018-03-15T04:32:03.939Z,6.37
2018-03-15T04:34:31.380Z,6.70
2018-03-15T04:36:58.840Z,6.77
2018-03-15T04:39:26.284Z,7.23
2018-03-15T04:41:53.720Z,7.17
2018-03-15T04:44:21.918Z,7.17
2018-03-15T04:46:49.349Z,7.50
2018-03-15T04:49:17.559Z,8.73
2018-03-15T04:51:45.029Z,6.87
2018-03-15T04:54:12.464Z,7.20
2018-03-15T04:56:39.944Z,7.77
2018-03-15T04:59:07.505Z,8.10
2018-03-15T05:01:34.937Z,8.10
2018-03-15T05:04:02.368Z,8.30
2018-03-15T05:06:30.592Z,8.70
2018-03-15T05:08:58.023Z,7.60
2018-03-15T05:11:25.511Z,7.70
2018-03-15T05:13:52.960Z,7.07
2018-03-15T05:16:20.416Z,8.03
2018-03-15T05:18:47.876Z,7.03
2018-03-15T05:21:15.336Z,7.67
2018-03-15T05:23:42.800Z,7.27
2018-03-15T05:26:10.321Z,8.63
2018-03-15T05:28:37.799Z,7.13
2018-03-15T05:31:05.240Z,7.20
2018-03-15T05:33:32.923Z,10.53
2018-03-15T05:36:00.365Z,9.70
2018-03-15T05:38:27.796Z,8.97
2018-03-15T05:40:55.291Z,9.10
2018-03-15T05:43:22.726Z,8.80
2018-03-15T05:45:50.208Z,8.67
2018-03-15T05:48:17.664Z,7.90
2018-03-15T05:50:45.128Z,7.07
2018-03-15T05:53:12.577Z,7.53
2018-03-15T05:55:40.036Z,6.30
2018-03-15T05:58:07.504Z,6.57
2018-03-15T06:00:34.948Z,6.77
2018-03-15T06:03:02.389Z,7.10
2018-03-15T06:05:29.851Z,8.03
2018-03-15T06:07:57.272Z,7.40
2018-03-15T06:10:25.496Z,6.77
2018-03-15T06:12:52.952Z,7.63
2018-03-15T06:15:20.409Z,7.93
2018-03-15T06:17:47.884Z,7.23
2018-03-15T06:20:15.428Z,7.63
2018-03-15T06:22:42.896Z,6.33
2018-03-15T06:25:10.337Z,7.23
2018-03-15T06:27:37.804Z,7.13
2018-03-15T06:30:05.252Z,6.40
2018-03-15T06:32:32.682Z,7.00
2018-03-15T06:35:00.179Z,6.67
2018-03-15T06:37:27.624Z,6.97
2018-03-15T06:39:55.124Z,6.33
2018-03-15T06:42:23.330Z,7.07
2018-03-15T06:44:50.817Z,7.33
2018-03-15T06:47:18.247Z,6.43
2018-03-15T06:49:46.720Z,7.10
2018-03-15T06:52:14.160Z,7.10
2018-03-15T06:54:42.353Z,7.70
2018-03-15T06:57:09.795Z,7.83
2018-03-15T06:59:37.292Z,7.43
2018-03-15T07:02:04.721Z,8.80
2018-03-15T07:04:32.168Z,8.57
2018-03-15T07:06:59.664Z,7.50
2018-03-15T07:09:27.124Z,6.90
2018-03-15T07:11:54.668Z,7.80
2018-03-15T07:14:22.106Z,8.43
2018-03-15T07:16:49.592Z,8.30
2018-03-15T07:19:17.048Z,7.63
2018-03-15T07:21:44.503Z,7.70
2018-03-15T07:24:11.937Z,7.73
2018-03-15T07:26:39.456Z,7.33
2018-03-15T07:29:07.660Z,8.70
2018-03-15T07:31:35.100Z,8.20
2018-03-15T07:34:03.304Z,7.27
2018-03-15T07:36:30.780Z,8.53
2018-03-15T07:38:58.237Z,8.00
2018-03-15T07:41:25.668Z,7.63
2018-03-15T07:43:53.152Z,7.47
2018-03-15T07:46:20.611Z,8.40
2018-03-15T07:48:48.046Z,7.97
2018-03-15T07:51:15.532Z,7.10
2018-03-15T07:53:42.975Z,8.47
2018-03-15T07:56:10.439Z,7.63
2018-03-15T07:58:37.878Z,8.43
2018-03-15T08:01:05.322Z,6.80
2018-03-15T08:03:32.813Z,7.63
2018-03-15T08:06:00.364Z,8.40
2018-03-15T08:08:27.825Z,7.83
2018-03-15T08:10:55.895Z,7.33
2018-03-15T08:13:23.364Z,7.80
2018-03-15T08:15:50.806Z,7.50
2018-03-15T08:18:18.252Z,7.40
2018-03-15T08:20:45.724Z,8.17
2018-03-15T08:23:13.181Z,7.67
2018-03-15T08:25:40.626Z,8.90
2018-03-15T08:28:08.103Z,7.87
2018-03-15T08:30:35.559Z,7.73
2018-03-15T08:33:03.014Z,7.03
2018-03-15T08:35:30.472Z,9.30
2018-03-15T08:37:57.899Z,8.07
2018-03-15T08:40:25.391Z,8.67
2018-03-15T08:42:52.776Z,7.37
2018-03-15T08:45:21.004Z,9.00
2018-03-15T08:47:48.424Z,8.67
2018-03-15T08:50:15.860Z,8.10
2018-03-15T08:52:44.069Z,8.27
2018-03-15T08:55:11.504Z,8.60
2018-03-15T08:57:39.724Z,9.60
2018-03-15T09:00:07.184Z,7.97
2018-03-15T09:02:34.637Z,8.43
2018-03-15T09:05:02.203Z,8.30
2018-03-15T09:07:30.663Z,9.03
2018-03-15T09:09:58.144Z,8.20
2018-03-15T09:12:25.608Z,7.53
2018-03-15T09:14:53.044Z,8.10
2018-03-15T09:17:20.484Z,7.37
2018-03-15T09:19:47.932Z,9.10
2018-03-15T09:22:15.432Z,9.10
2018-03-15T09:24:42.872Z,8.37
2018-03-15T09:27:10.332Z,8.30
2018-03-15T09:29:37.792Z,8.40
2018-03-15T09:32:05.249Z,8.97
2018-03-15T09:34:32.839Z,9.60
2018-03-15T09:37:00.272Z,11.53
2018-03-15T09:39:27.708Z,9.07
2018-03-15T09:41:55.160Z,8.60
2018-03-15T09:44:22.636Z,8.57
2018-03-15T09:46:50.073Z,8.27
2018-03-15T09:49:17.513Z,7.00
2018-03-15T09:51:44.964Z,6.90
2018-03-15T09:54:12.399Z,7.30
2018-03-15T09:56:40.634Z,7.17
2018-03-15T09:59:08.100Z,6.83
2018-03-15T10:01:35.664Z,7.87
2018-03-15T10:04:03.111Z,7.20
2018-03-15T10:06:30.680Z,7.33
2018-03-15T10:08:58.235Z,7.27
2018-03-15T10:11:25.792Z,6.90
2018-03-15T10:13:53.232Z,7.30
2018-03-15T10:16:20.700Z,6.10
2018-03-15T10:18:48.156Z,6.00
2018-03-15T10:21:15.589Z,5.90
2018-03-15T10:23:43.029Z,6.60
2018-03-15T10:26:10.472Z,6.37
2018-03-15T10:28:38.698Z,6.10
2018-03-15T10:31:06.169Z,5.63
2018-03-15T10:33:37.602Z,5.90
2018-03-15T10:36:05.066Z,5.57
2018-03-15T10:38:32.512Z,5.83
2018-03-15T10:40:59.950Z,6.20
2018-03-15T10:43:27.433Z,5.00
2018-03-15T10:45:54.897Z,6.00
2018-03-15T10:48:22.451Z,5.60
2018-03-15T10:50:49.912Z,5.87
2018-03-15T10:53:17.361Z,6.40
2018-03-15T10:55:44.942Z,6.17
2018-03-15T10:58:12.384Z,5.87
2018-03-15T11:00:45.516Z,5.40
2018-03-15T11:03:17.636Z,5.53
2018-03-15T11:05:46.709Z,6.30
2018-03-15T11:08:19.802Z,6.23
2018-03-15T11:10:47.277Z,6.23
2018-03-15T11:13:14.729Z,5.43
2018-03-15T11:15:42.167Z,6.00
2018-03-15T11:18:09.614Z,6.23
2018-03-15T11:20:37.108Z,6.37
2018-03-15T11:23:04.576Z,6.90
2018-03-15T11:25:32.020Z,5.90
2018-03-15T11:27:59.475Z,6.03
2018-03-15T11:30:26.914Z,6.73
2018-03-15T11:32:54.352Z,5.50
2018-03-15T11:35:21.847Z,6.20
2018-03-15T11:37:49.903Z,7.23
2018-03-15T11:40:17.343Z,6.90
2018-03-15T11:42:44.841Z,5.67
2018-03-15T11:45:12.268Z,5.90
2018-03-15T11:47:39.760Z,5.87
2018-03-15T11:50:07.208Z,6.13
2018-03-15T11:52:34.663Z,6.50
2018-03-15T11:55:02.121Z,6.67
2018-03-15T11:57:29.552Z,5.60
2018-03-15T11:59:57.028Z,5.10
2018-03-15T12:02:24.488Z,5.63
2018-03-15T12:04:51.948Z,5.00
2018-03-15T12:07:19.388Z,6.63
2018-03-15T12:09:46.833Z,5.30
2018-03-15T12:12:14.290Z,5.23
2018-03-15T12:14:41.771Z,5.40
2018-03-15T12:17:09.214Z,5.47
2018-03-15T12:19:36.685Z,5.37
2018-03-15T12:22:04.140Z,5.80
2018-03-15T12:24:31.573Z,5.53
2018-03-15T12:26:59.056Z,5.10
2018-03-15T12:29:26.508Z,4.30
2018-03-15T12:31:53.970Z,4.70
2018-03-15T12:34:21.412Z,5.33
2018-03-15T12:36:48.880Z,5.27
2018-03-15T12:39:16.341Z,5.60
2018-03-15T12:41:43.782Z,4.93
2018-03-15T12:44:11.220Z,4.73
2018-03-15T12:46:38.708Z,4.43
2018-03-15T12:49:06.176Z,4.73
2018-03-15T12:51:33.625Z,4.50
2018-03-15T12:54:01.082Z,4.57
2018-03-15T12:56:28.536Z,4.43
2018-03-15T12:58:55.992Z,4.87
2018-03-15T13:01:23.464Z,5.73
2018-03-15T13:03:50.910Z,4.37
2018-03-15T13:06:18.376Z,5.07
2018-03-15T13:08:45.923Z,4.47
2018-03-15T13:11:13.360Z,4.43
2018-03-15T13:13:40.796Z,4.40
2018-03-15T13:16:08.243Z,4.67
2018-03-15T13:18:36.463Z,4.37
2018-03-15T13:21:03.924Z,4.17
2018-03-15T13:23:31.396Z,4.63
2018-03-15T13:25:58.834Z,3.90
2018-03-15T13:28:26.343Z,3.90
2018-03-15T13:30:53.752Z,4.60
2018-03-15T13:33:21.225Z,4.03
2018-03-15T13:35:48.671Z,4.20
2018-03-15T13:38:16.113Z,4.50
2018-03-15T13:40:43.592Z,4.80
2018-03-15T13:43:11.058Z,4.27
2018-03-15T13:45:38.500Z,4.93
2018-03-15T13:48:05.965Z,4.43
2018-03-15T13:50:33.392Z,4.50
2018-03-15T13:53:00.824Z,4.07
2018-03-15T13:55:28.332Z,4.43
2018-03-15T13:57:55.892Z,5.20
2018-03-15T14:00:23.341Z,4.17
2018-03-15T14:02:50.771Z,4.37
2018-03-15T14:05:18.203Z,4.87
2018-03-15T14:07:46.413Z,3.87
2018-03-15T14:10:13.864Z,4.00
2018-03-15T14:12:41.335Z,3.93
2018-03-15T14:15:08.770Z,4.50
2018-03-15T14:17:36.220Z,3.90
2018-03-15T14:20:03.712Z,3.83
2018-03-15T14:22:31.152Z,3.80
2018-03-15T14:24:58.620Z,4.50
2018-03-15T14:27:26.060Z,4.50
2018-03-15T14:29:53.492Z,4.37
2018-03-15T14:32:20.926Z,3.90
2018-03-15T14:34:49.167Z,4.30
2018-03-15T14:37:16.598Z,4.10
2018-03-15T14:39:44.078Z,4.77
2018-03-15T14:42:11.519Z,4.57
2018-03-15T14:44:38.951Z,3.93
2018-03-15T14:47:06.548Z,4.60
2018-03-15T14:49:33.989Z,4.87
2018-03-15T14:52:01.468Z,3.50
2018-03-15T14:54:28.913Z,4.47
2018-03-15T14:56:56.587Z,4.10
2018-03-15T14:59:24.048Z,4.47
2018-03-15T15:01:51.504Z,4.63
2018-03-15T15:04:18.962Z,3.67
2018-03-15T15:06:46.380Z,3.77
2018-03-15T15:09:13.824Z,4.00
2018-03-15T15:11:42.052Z,5.47
2018-03-15T15:14:09.573Z,4.77
2018-03-15T15:16:36.999Z,3.90
2018-03-15T15:19:05.940Z,4.10
2018-03-15T15:21:33.396Z,3.70
2018-03-15T15:24:00.863Z,4.57
2018-03-15T15:26:28.321Z,4.00
2018-03-15T15:28:55.752Z,3.80
2018-03-15T15:31:23.187Z,3.80
2018-03-15T15:33:50.624Z,3.47
2018-03-15T15:36:18.839Z,3.80
2018-03-15T15:38:46.322Z,4.57
2018-03-15T15:41:13.775Z,4.10
2018-03-15T15:43:41.211Z,4.60
2018-03-15T15:46:08.689Z,4.07
2018-03-15T15:48:36.128Z,3.83
2018-03-15T15:51:03.559Z,3.93
2018-03-15T15:53:31.006Z,4.50
2018-03-15T15:55:59.252Z,3.37
2018-03-15T15:58:26.692Z,3.33
2018-03-15T16:00:54.136Z,3.37
2018-03-15T16:03:21.616Z,3.70
2018-03-15T16:05:49.183Z,4.30
2018-03-15T16:08:16.614Z,4.43
2018-03-15T16:10:44.056Z,3.83
2018-03-15T16:13:11.538Z,4.00
2018-03-15T16:15:39.001Z,3.50
2018-03-15T16:18:06.465Z,3.40
2018-03-15T16:20:34.761Z,3.43
2018-03-15T16:23:02.164Z,3.90
2018-03-15T16:25:30.460Z,3.70
2018-03-15T16:27:57.916Z,3.00
2018-03-15T16:30:25.351Z,3.60
2018-03-15T16:32:52.789Z,2.97
2018-03-15T16:35:20.236Z,3.73
2018-03-15T16:37:48.472Z,3.90
2018-03-15T16:40:16.024Z,3.13
2018-03-15T16:42:43.580Z,3.90
2018-03-15T16:45:11.036Z,3.50
2018-03-15T16:47:38.476Z,4.43
2018-03-15T16:50:05.918Z,4.30
2018-03-15T16:52:33.344Z,4.57
2018-03-15T16:55:01.592Z,4.10
2018-03-15T16:57:29.027Z,3.53
2018-03-15T16:59:56.500Z,3.60
2018-03-15T17:02:23.989Z,4.03
2018-03-15T17:04:51.515Z,3.90
2018-03-15T17:07:18.973Z,3.77
2018-03-15T17:09:47.327Z,3.70
2018-03-15T17:12:14.773Z,3.20
2018-03-15T17:14:42.265Z,4.00
2018-03-15T17:17:09.752Z,3.97
2018-03-15T17:19:37.200Z,3.60
2018-03-15T17:22:04.735Z,3.80
2018-03-15T17:24:32.823Z,2.60
2018-03-15T17:27:00.367Z,2.80
2018-03-15T17:29:27.796Z,3.33
2018-03-15T17:31:55.250Z,3.40
2018-03-15T17:34:22.683Z,4.20
2018-03-15T17:36:50.892Z,3.93
2018-03-15T17:39:18.373Z,3.50
2018-03-15T17:41:45.929Z,3.80
2018-03-15T17:44:13.386Z,3.70
2018-03-15T17:46:40.846Z,4.30
2018-03-15T17:49:08.291Z,4.40
2018-03-15T17:51:35.761Z,4.27
2018-03-15T17:54:03.202Z,4.60
2018-03-15T17:56:30.640Z,3.90
2018-03-15T17:58:58.133Z,4.17
2018-03-15T18:01:25.592Z,4.20
2018-03-15T18:03:53.143Z,4.63
2018-03-15T18:06:20.587Z,4.10
2018-03-15T18:08:48.050Z,4.50
2018-03-15T18:11:15.525Z,4.93
2018-03-15T18:13:43.068Z,4.47
2018-03-15T18:16:10.538Z,3.90
2018-03-15T18:18:38.816Z,4.73
2018-03-15T18:21:06.252Z,4.33
2018-03-15T18:23:33.695Z,4.90
2018-03-15T18:26:01.136Z,4.30
2018-03-15T18:28:28.576Z,5.20
2018-03-15T18:30:56.822Z,5.90
2018-03-15T18:33:24.279Z,5.53
2018-03-15T18:35:51.712Z,5.30
2018-03-15T18:38:19.188Z,5.63
2018-03-15T18:40:46.795Z,5.47
2018-03-15T18:43:14.255Z,6.17
2018-03-15T18:45:41.692Z,4.83
2018-03-15T18:48:09.938Z,5.40
2018-03-15T18:50:37.485Z,6.00
2018-03-15T18:53:04.953Z,6.30
2018-03-15T18:55:32.492Z,6.17
2018-03-15T18:57:59.953Z,5.37
2018-03-15T19:00:27.421Z,6.67
2018-03-15T19:02:54.992Z,6.07
2018-03-15T19:05:22.528Z,6.63
2018-03-15T19:07:50.021Z,5.73
2018-03-15T19:10:17.568Z,6.73
2018-03-15T19:12:45.024Z,6.00
2018-03-15T19:15:12.516Z,6.17
2018-03-15T19:17:40.704Z,5.73
2018-03-15T19:20:08.178Z,5.10
2018-03-15T19:22:35.658Z,5.40
2018-03-15T19:25:03.096Z,5.67
2018-03-15T19:27:30.547Z,5.30
2018-03-15T19:29:58.005Z,6.43
2018-03-15T19:32:25.432Z,6.60
2018-03-15T19:34:52.889Z,6.93
2018-03-15T19:37:21.112Z,6.70
2018-03-15T19:39:48.582Z,6.53
2018-03-15T19:42:16.061Z,6.60
2018-03-15T19:44:43.489Z,5.30
2018-03-15T19:47:10.923Z,6.13
2018-03-15T19:49:38.375Z,6.50
2018-03-15T19:52:05.840Z,5.10
2018-03-15T19:54:33.320Z,5.83
2018-03-15T19:57:00.760Z,5.53
2018-03-15T19:59:28.212Z,6.50
2018-03-15T20:01:55.689Z,7.00
2018-03-15T20:04:23.124Z,6.73
2018-03-15T20:06:51.447Z,5.90
2018-03-15T20:09:18.875Z,7.07
2018-03-15T20:11:46.444Z,7.57
2018-03-15T20:14:14.027Z,8.20
2018-03-15T20:16:41.550Z,8.90
2018-03-15T20:19:14.697Z,8.50
2018-03-15T20:21:42.152Z,9.63
2018-03-15T20:24:15.989Z,9.00
2018-03-15T20:26:43.462Z,9.67
2018-03-15T20:29:10.896Z,7.70
2018-03-15T20:31:38.356Z,7.40
2018-03-15T20:34:11.208Z,8.20
2018-03-15T20:36:38.652Z,6.97
2018-03-15T20:39:12.532Z,7.87
2018-03-15T20:41:40.012Z,6.80
2018-03-15T20:44:07.440Z,7.20
2018-03-15T20:46:40.464Z,7.10
2018-03-15T20:49:09.088Z,7.03
2018-03-15T20:51:36.535Z,7.00
2018-03-15T20:54:03.981Z,6.40
2018-03-15T20:56:31.412Z,7.80
2018-03-15T20:58:59.636Z,7.40
2018-03-15T21:01:27.072Z,7.40
2018-03-15T21:03:54.504Z,6.23
2018-03-15T21:06:22.708Z,6.97
2018-03-15T21:08:50.140Z,6.33
2018-03-15T21:11:29.035Z,7.40
2018-03-15T21:13:56.486Z,8.23
2018-03-15T21:16:23.928Z,6.83
2018-03-15T21:18:51.362Z,7.30
2018-03-15T21:21:18.795Z,7.10
2018-03-15T21:23:46.252Z,7.30
2018-03-15T21:26:14.460Z,7.90
2018-03-15T21:28:41.890Z,7.43
2018-03-15T21:31:09.334Z,8.23
2018-03-15T21:33:37.533Z,5.47
2018-03-15T21:36:04.964Z,8.63
2018-03-15T21:38:32.413Z,10.60
2018-03-15T21:41:00.619Z,13.77
2018-03-15T21:43:28.070Z,8.00
2018-03-15T21:45:55.504Z,6.90
2018-03-15T21:48:23.752Z,6.33
2018-03-15T21:50:51.200Z,6.50
2018-03-15T21:53:18.644Z,6.47
2018-03-15T21:55:46.087Z,6.03
2018-03-15T21:58:13.531Z,6.20
2018-03-15T22:00:40.956Z,6.90
2018-03-15T22:03:09.153Z,8.17
2018-03-15T22:05:36.645Z,6.70
2018-03-15T22:08:04.088Z,7.00
2018-03-15T22:10:31.521Z,5.73
2018-03-15T22:12:59.016Z,8.10
2018-03-15T22:15:26.471Z,6.80
2018-03-15T22:17:53.901Z,7.13
2018-03-15T22:20:21.386Z,5.80
2018-03-15T22:22:48.950Z,6.80
2018-03-15T22:25:16.376Z,6.47
2018-03-15T22:27:43.854Z,6.60
2018-03-15T22:30:11.317Z,7.17
2018-03-15T22:32:38.755Z,6.90
2018-03-15T22:35:07.056Z,5.90
2018-03-15T22:37:34.600Z,6.93
2018-03-15T22:40:02.060Z,5.70
2018-03-15T22:42:29.516Z,6.83
2018-03-15T22:44:56.944Z,6.47
2018-03-15T22:47:24.876Z,6.93
2018-03-15T22:49:52.406Z,6.70
2018-03-15T22:52:19.833Z,7.40
2018-03-15T22:54:47.280Z,7.07
2018-03-15T22:57:15.619Z,6.60
2018-03-15T22:59:43.155Z,7.37
2018-03-15T23:02:10.608Z,6.90
2018-03-15T23:04:38.037Z,7.27
2018-03-15T23:07:05.471Z,7.50
2018-03-15T23:09:33.669Z,6.97
2018-03-15T23:12:01.108Z,7.50
2018-03-15T23:14:28.535Z,7.03
2018-03-15T23:16:56.082Z,6.90
2018-03-15T23:19:23.520Z,6.87
2018-03-15T23:21:50.980Z,7.27
2018-03-15T23:24:18.415Z,7.10
2018-03-15T23:26:45.847Z,6.93
2018-03-15T23:29:14.103Z,7.67
2018-03-15T23:31:42.307Z,7.27
2018-03-15T23:34:09.800Z,8.33
2018-03-15T23:36:37.244Z,7.57
2018-03-15T23:39:04.720Z,6.93
2018-03-15T23:41:32.196Z,6.90
2018-03-15T23:43:59.723Z,7.40
2018-03-15T23:46:27.169Z,13.17
2018-03-15T23:48:54.610Z,9.87
2018-03-15T23:51:22.047Z,11.03
2018-03-15T23:53:50.257Z,8.47
2018-03-15T23:56:18.243Z,7.07
2018-03-15T23:58:45.698Z,7.63
